Time;durP1;ratioP1;P1;durP2;ratioP2;P2;SDS_P1;SDS_P2;PMS_P1;PMS_P2;Temp;Humidity;BMP_temperature;BMP_pressure;BME280_temperature;BME280_humidity;BME280_pressure;Samples;Min_cycle;Max_cycle;Signal;HPM_P1;HPM_P2
2022/01/06 00:01:22;;;;;;;25.05;3.63;;;5.00;99.90;;;;;;5094428;28;20123;-73
2022/01/06 00:03:48;;;;;;;31.88;4.22;;;4.00;99.90;;;;;;5110839;28;20127;-73
2022/01/06 00:06:14;;;;;;;21.98;3.92;;;3.90;99.90;;;;;;5094241;28;20165;-73
2022/01/06 00:08:40;;;;;;;24.65;3.92;;;4.00;99.90;;;;;;5093992;28;20048;-73
2022/01/06 00:11:08;;;;;;;28.95;3.38;;;3.90;99.90;;;;;;5093789;28;20439;-73
2022/01/06 00:24:22;;;;;;;23.95;3.97;;;3.60;99.90;;;;;;5093739;28;20051;-73
2022/01/06 00:26:51;;;;;;;22.35;3.28;;;3.60;99.90;;;;;;5093644;28;20044;-73
2022/01/06 00:29:17;;;;;;;21.55;3.53;;;3.50;99.90;;;;;;5093972;28;20052;-73
2022/01/06 00:31:43;;;;;;;20.30;3.47;;;3.40;99.90;;;;;;5092365;28;20047;-73
2022/01/06 00:34:10;;;;;;;22.48;4.00;;;3.40;99.90;;;;;;5093755;28;20044;-73
2022/01/06 00:36:41;;;;;;;26.50;3.95;;;3.30;99.90;;;;;;5093949;28;20048;-73
2022/01/06 00:39:08;;;;;;;21.92;3.95;;;3.20;99.90;;;;;;5093502;28;20056;-73
2022/01/06 00:41:36;;;;;;;20.27;4.47;;;3.90;99.90;;;;;;5093682;28;20462;-73
2022/01/06 00:44:04;;;;;;;30.83;3.72;;;3.10;99.90;;;;;;5110454;28;20509;-73
2022/01/06 00:46:30;;;;;;;34.88;3.83;;;3.10;99.90;;;;;;5093444;28;20098;-73
2022/01/06 00:48:56;;;;;;;25.77;4.25;;;3.10;99.90;;;;;;5110466;28;20086;-73
2022/01/06 00:51:22;;;;;;;24.38;3.38;;;3.10;99.90;;;;;;5093634;28;20056;-73
2022/01/06 00:53:51;;;;;;;35.17;4.00;;;3.30;99.90;;;;;;5093749;28;20063;-73
2022/01/06 00:56:16;;;;;;;21.27;5.70;;;3.00;99.90;;;;;;5093441;28;20129;-73
2022/01/06 00:58:42;;;;;;;28.65;4.50;;;3.10;99.90;;;;;;5075952;28;20073;-73
2022/01/06 01:01:10;;;;;;;23.05;3.88;;;3.00;99.90;;;;;;5093152;28;20044;-73
2022/01/06 01:03:39;;;;;;;21.90;3.85;;;3.00;99.90;;;;;;5093383;28;20047;-73
2022/01/06 01:06:05;;;;;;;17.50;4.25;;;3.00;99.90;;;;;;5092419;28;20176;-73
2022/01/06 01:08:33;;;;;;;15.02;2.92;;;3.10;99.90;;;;;;5093465;28;20093;-73
2022/01/06 01:10:58;;;;;;;17.60;3.55;;;3.10;99.90;;;;;;5092814;28;20376;-73
2022/01/06 01:13:28;;;;;;;20.05;3.45;;;3.50;99.90;;;;;;5092669;28;20043;-73
2022/01/06 01:15:58;;;;;;;21.95;2.67;;;3.20;99.90;;;;;;5093762;28;20040;-73
2022/01/06 01:18:27;;;;;;;17.90;2.67;;;3.60;99.90;;;;;;5093658;28;20040;-73
2022/01/06 01:20:54;;;;;;;21.75;3.45;;;3.90;99.90;;;;;;5091949;28;20059;-73
2022/01/06 01:23:21;;;;;;;15.85;3.25;;;3.30;99.90;;;;;;5076307;28;20047;-73
2022/01/06 01:25:47;;;;;;;25.13;4.45;;;3.30;99.90;;;;;;5092685;28;20128;-73
2022/01/06 01:28:14;;;;;;;18.23;2.50;;;3.30;99.90;;;;;;5093365;28;20118;-73
2022/01/06 01:30:53;;;;;;;21.88;3.65;;;3.60;99.90;;;;;;5092707;28;20157;-73
2022/01/06 01:33:19;;;;;;;22.92;3.30;;;3.30;99.90;;;;;;5075413;28;20364;-73
2022/01/06 01:35:45;;;;;;;21.90;3.17;;;3.30;99.90;;;;;;5092331;28;20047;-73
2022/01/06 01:38:11;;;;;;;21.75;3.63;;;3.30;99.90;;;;;;5093267;28;20055;-73
2022/01/06 01:40:37;;;;;;;22.02;3.00;;;3.60;99.90;;;;;;5091766;28;20047;-73
2022/01/06 01:43:03;;;;;;;29.52;5.05;;;3.30;99.90;;;;;;5092478;28;20040;-73
2022/01/06 01:45:32;;;;;;;17.45;2.47;;;3.60;99.90;;;;;;5074863;28;20055;-73
2022/01/06 01:48:02;;;;;;;23.35;3.42;;;3.30;99.90;;;;;;5091907;28;20048;-73
2022/01/06 01:50:28;;;;;;;23.65;3.30;;;3.60;99.90;;;;;;5093115;28;20056;-73
2022/01/06 01:52:58;;;;;;;29.02;3.88;;;3.30;99.90;;;;;;5092792;28;20052;-73
2022/01/06 01:55:32;;;;;;;14.95;2.50;;;3.10;99.90;;;;;;5091367;28;20083;-73
2022/01/06 01:57:58;;;;;;;24.45;3.88;;;3.20;99.90;;;;;;5092687;28;20044;-73
2022/01/06 02:00:27;;;;;;;30.10;3.78;;;3.20;99.90;;;;;;5092323;28;20039;-73
2022/01/06 02:02:54;;;;;;;20.00;3.45;;;4.10;99.90;;;;;;5108774;28;20060;-73
2022/01/06 02:05:26;;;;;;;22.33;3.40;;;3.60;99.90;;;;;;5092616;28;20040;-73
2022/01/06 02:07:59;;;;;;;16.33;2.70;;;3.20;99.90;;;;;;5092679;28;20052;-73
2022/01/06 02:10:26;;;;;;;15.75;2.90;;;3.10;99.90;;;;;;5090623;28;20056;-73
2022/01/06 02:12:57;;;;;;;21.35;3.33;;;3.10;99.90;;;;;;5092281;28;20044;-73
2022/01/06 02:15:23;;;;;;;16.48;2.33;;;3.00;99.90;;;;;;5074302;28;20040;-73
2022/01/06 02:17:49;;;;;;;23.15;3.55;;;3.20;99.90;;;;;;5109461;28;20044;-73
2022/01/06 02:20:18;;;;;;;18.40;2.63;;;3.00;99.90;;;;;;5092489;28;20043;-73
2022/01/06 02:22:48;;;;;;;17.88;4.45;;;2.70;99.90;;;;;;5075095;28;20048;-73
2022/01/06 02:25:30;;;;;;;26.27;2.90;;;3.10;99.90;;;;;;5091749;28;20052;-73
2022/01/06 02:27:57;;;;;;;17.42;3.08;;;2.70;99.90;;;;;;5075517;28;20444;-73
2022/01/06 02:30:25;;;;;;;15.70;2.72;;;3.30;99.90;;;;;;5091314;28;20148;-73
2022/01/06 02:32:53;;;;;;;23.73;2.42;;;2.70;99.90;;;;;;5091988;28;20376;-73
2022/01/06 02:35:23;;;;;;;26.65;4.47;;;2.70;99.90;;;;;;5092146;28;20055;-73
2022/01/06 02:37:49;;;;;;;15.98;2.80;;;2.70;99.90;;;;;;5093791;28;20056;-73
2022/01/06 02:40:18;;;;;;;13.75;2.55;;;2.60;99.90;;;;;;5072075;28;20051;-73
2022/01/06 02:42:48;;;;;;;17.50;2.50;;;2.60;99.90;;;;;;5084692;28;20056;-73
2022/01/06 02:45:14;;;;;;;18.60;3.47;;;2.60;99.90;;;;;;5091225;28;20127;-73
2022/01/06 02:47:41;;;;;;;16.10;2.50;;;2.50;99.90;;;;;;5075210;28;20097;-73
2022/01/06 02:50:10;;;;;;;20.77;2.42;;;2.60;99.90;;;;;;5075191;28;20040;-74
2022/01/06 02:52:36;;;;;;;17.48;4.00;;;2.50;99.90;;;;;;5090993;28;20052;-73
2022/01/06 02:55:03;;;;;;;25.27;3.28;;;2.50;99.90;;;;;;5092329;28;20103;-73
2022/01/06 02:57:29;;;;;;;19.25;2.67;;;2.40;99.90;;;;;;5094999;28;20044;-73
2022/01/06 02:59:54;;;;;;;31.73;3.35;;;2.40;99.90;;;;;;5095655;28;20059;-73
2022/01/06 03:02:20;;;;;;;11.15;2.10;;;2.40;99.90;;;;;;5095416;28;20040;-73
2022/01/06 03:04:46;;;;;;;16.90;2.55;;;3.20;99.90;;;;;;5112271;28;20108;-73
2022/01/06 03:07:11;;;;;;;21.35;3.13;;;2.30;99.90;;;;;;5078743;28;20475;-73
2022/01/06 03:09:39;;;;;;;15.07;2.25;;;2.40;99.90;;;;;;5095287;28;20075;-73
2022/01/06 03:12:11;;;;;;;15.50;2.65;;;2.40;99.90;;;;;;5094005;28;20373;-73
2022/01/06 03:14:37;;;;;;;16.55;2.72;;;2.30;99.90;;;;;;5095899;28;20040;-73
2022/01/06 03:17:05;;;;;;;17.77;4.13;;;2.30;99.90;;;;;;5095356;28;20052;-73
2022/01/06 03:19:48;;;;;;;24.17;3.60;;;2.20;99.90;;;;;;5094722;28;20102;-73
2022/01/06 03:22:14;;;;;;;21.13;3.97;;;2.20;99.90;;;;;;5078193;28;20040;-73
2022/01/06 03:24:40;;;;;;;21.63;3.00;;;2.10;99.90;;;;;;5078741;28;20046;-73
2022/01/06 03:27:06;;;;;;;28.65;3.78;;;2.10;99.90;;;;;;5077393;28;20471;-73
2022/01/06 03:29:32;;;;;;;15.95;3.10;;;2.10;99.90;;;;;;5078446;28;20048;-73
2022/01/06 03:31:59;;;;;;;14.93;2.55;;;2.50;99.90;;;;;;5078139;28;20055;-73
2022/01/06 03:34:26;;;;;;;19.58;4.80;;;2.00;99.90;;;;;;5111561;28;20055;-73
2022/01/06 03:36:52;;;;;;;18.13;2.80;;;1.90;99.90;;;;;;5094645;28;20054;-73
2022/01/06 03:39:18;;;;;;;25.95;3.00;;;2.00;99.90;;;;;;5095213;28;20044;-73
2022/01/06 03:41:44;;;;;;;17.98;2.75;;;1.90;99.90;;;;;;5093773;28;20074;-73
2022/01/06 03:44:09;;;;;;;26.75;4.95;;;1.80;99.90;;;;;;5096321;28;20036;-73
2022/01/06 03:46:35;;;;;;;18.63;2.75;;;1.90;99.90;;;;;;5096031;28;20040;-73
2022/01/06 03:49:01;;;;;;;17.05;2.95;;;2.10;99.90;;;;;;5094262;28;20479;-73
2022/01/06 03:51:26;;;;;;;23.33;2.80;;;1.90;99.90;;;;;;5094489;28;20044;-73
2022/01/06 03:53:53;;;;;;;14.73;1.92;;;1.80;99.90;;;;;;5093938;28;20134;-73
2022/01/06 03:56:19;;;;;;;15.13;2.80;;;1.80;99.90;;;;;;5094185;28;20123;-73
2022/01/06 03:58:44;;;;;;;18.90;3.53;;;1.90;99.90;;;;;;5094828;28;20040;-72
2022/01/06 04:01:11;;;;;;;14.07;2.35;;;2.00;99.90;;;;;;5076783;28;20479;-73
2022/01/06 04:03:37;;;;;;;22.60;2.78;;;1.70;99.90;;;;;;5078182;28;20479;-73
2022/01/06 04:06:03;;;;;;;20.85;2.40;;;1.70;99.90;;;;;;5077724;28;20059;-73
2022/01/06 04:08:29;;;;;;;19.60;2.58;;;1.60;99.90;;;;;;5092281;28;20044;-72
2022/01/06 04:10:54;;;;;;;12.35;2.58;;;1.60;99.90;;;;;;5077103;28;20066;-73
2022/01/06 04:13:20;;;;;;;13.65;2.70;;;1.60;99.90;;;;;;5094257;28;20044;-73
2022/01/06 04:15:47;;;;;;;20.48;2.45;;;1.80;99.90;;;;;;5093609;28;20043;-73
2022/01/06 04:18:13;;;;;;;12.55;3.35;;;1.50;99.90;;;;;;5094540;28;20048;-73
2022/01/06 04:20:38;;;;;;;13.35;2.17;;;2.30;99.90;;;;;;5094511;28;20046;-73
2022/01/06 04:23:04;;;;;;;18.63;2.33;;;2.40;99.90;;;;;;5093481;28;20511;-73
2022/01/06 04:25:32;;;;;;;12.00;2.00;;;1.50;99.90;;;;;;5093658;28;20120;-73
2022/01/06 04:27:58;;;;;;;15.88;2.50;;;1.40;99.90;;;;;;5094226;28;20051;-73
2022/01/06 04:30:24;;;;;;;14.52;2.80;;;1.50;99.90;;;;;;5076271;28;20036;-73
2022/01/06 04:32:49;;;;;;;16.73;2.13;;;1.30;99.90;;;;;;5111006;28;20105;-73
2022/01/06 04:35:15;;;;;;;18.95;2.08;;;1.20;99.90;;;;;;5076945;28;20059;-73
2022/01/06 04:37:41;;;;;;;15.50;2.72;;;1.10;99.90;;;;;;5092399;28;20085;-73
2022/01/06 04:40:07;;;;;;;21.88;3.97;;;1.80;99.90;;;;;;5074022;28;20084;-73
2022/01/06 04:42:34;;;;;;;10.43;2.15;;;1.00;99.90;;;;;;5093234;28;20055;-73
2022/01/06 04:45:00;;;;;;;19.88;2.97;;;0.90;99.90;;;;;;5076124;28;20105;-73
2022/01/06 04:47:25;;;;;;;14.95;2.35;;;1.20;99.90;;;;;;5093924;28;20399;-73
2022/01/06 04:49:51;;;;;;;13.38;3.42;;;0.80;99.90;;;;;;5093900;28;20127;-73
2022/01/06 04:52:17;;;;;;;17.63;2.38;;;0.80;99.90;;;;;;5092441;28;20067;-73
2022/01/06 04:54:43;;;;;;;12.85;2.20;;;0.70;99.90;;;;;;5093599;28;20052;-73
2022/01/06 04:57:08;;;;;;;20.30;4.20;;;0.70;99.90;;;;;;5092646;28;20051;-73
2022/01/06 04:59:34;;;;;;;21.63;2.55;;;0.70;99.90;;;;;;5093382;28;20086;-73
2022/01/06 05:02:00;;;;;;;18.50;2.83;;;0.70;99.90;;;;;;5093689;28;20044;-73
2022/01/06 05:04:26;;;;;;;15.40;1.92;;;0.60;99.90;;;;;;5093121;28;20150;-73
2022/01/06 05:06:52;;;;;;;21.05;2.47;;;0.60;99.90;;;;;;5093309;28;20047;-73
2022/01/06 05:09:18;;;;;;;19.77;2.55;;;0.80;99.90;;;;;;5093173;28;20181;-73
2022/01/06 05:11:44;;;;;;;20.13;2.80;;;0.60;99.90;;;;;;5075134;28;20143;-73
2022/01/06 05:14:10;;;;;;;18.08;2.85;;;0.60;99.90;;;;;;5093644;28;20250;-73
2022/01/06 05:16:36;;;;;;;10.63;2.50;;;0.50;99.90;;;;;;5076696;28;20040;-73
2022/01/06 05:19:02;;;;;;;24.65;2.78;;;0.50;99.90;;;;;;5092295;28;20040;-73
2022/01/06 05:21:30;;;;;;;18.30;2.67;;;1.30;99.90;;;;;;5093329;28;20134;-73
2022/01/06 05:23:56;;;;;;;17.67;2.88;;;0.50;99.90;;;;;;5092912;28;20044;-73
2022/01/06 05:26:22;;;;;;;18.30;2.30;;;0.40;99.90;;;;;;5092175;28;20065;-73
2022/01/06 05:28:48;;;;;;;12.15;2.40;;;1.10;99.90;;;;;;5092879;28;20050;-73
2022/01/06 05:31:14;;;;;;;15.07;3.05;;;0.40;99.90;;;;;;5092828;28;20056;-73
2022/01/06 05:33:40;;;;;;;17.58;2.92;;;0.40;99.90;;;;;;5092130;28;20040;-73
2022/01/06 05:36:06;;;;;;;28.63;5.10;;;0.40;99.90;;;;;;5092871;28;20384;-73
2022/01/06 05:38:32;;;;;;;13.65;2.20;;;0.30;99.90;;;;;;5091824;28;20497;-73
2022/01/06 05:41:00;;;;;;;24.02;3.15;;;0.60;99.90;;;;;;5091632;28;20075;-73
2022/01/06 05:43:27;;;;;;;21.20;3.55;;;1.40;99.90;;;;;;5092242;28;20040;-73
2022/01/06 05:45:55;;;;;;;36.17;4.50;;;0.40;99.90;;;;;;5093041;28;20132;-73
2022/01/06 05:48:21;;;;;;;20.80;2.90;;;0.50;99.90;;;;;;5091644;28;20126;-73
2022/01/06 05:50:48;;;;;;;21.35;2.97;;;0.40;99.90;;;;;;5109267;28;20052;-73
2022/01/06 05:53:15;;;;;;;16.77;3.35;;;0.40;99.90;;;;;;5076015;28;20048;-73
2022/01/06 05:55:41;;;;;;;13.60;3.47;;;0.40;99.90;;;;;;5091626;28;20040;-73
2022/01/06 05:58:07;;;;;;;18.92;3.22;;;1.20;99.90;;;;;;5093374;28;20523;-73
2022/01/06 06:00:36;;;;;;;22.15;2.78;;;0.40;99.90;;;;;;5091793;28;20048;-73
2022/01/06 06:03:02;;;;;;;22.70;3.20;;;0.40;99.90;;;;;;5075760;28;20048;-73
2022/01/06 06:05:27;;;;;;;16.77;3.05;;;0.40;99.90;;;;;;5092443;28;20368;-72
2022/01/06 06:07:53;;;;;;;18.02;4.05;;;0.40;99.90;;;;;;5092714;28;20039;-74
2022/01/06 06:10:19;;;;;;;22.90;3.72;;;1.40;99.90;;;;;;5093491;28;20036;-75
2022/01/06 06:12:45;;;;;;;17.05;3.38;;;0.40;99.90;;;;;;5091582;28;20045;-75
2022/01/06 06:15:11;;;;;;;18.15;2.63;;;0.40;99.90;;;;;;5091742;28;20048;-75
2022/01/06 06:17:36;;;;;;;14.32;3.10;;;0.40;99.90;;;;;;5092734;28;20057;-74
2022/01/06 06:20:03;;;;;;;14.00;3.00;;;0.50;99.90;;;;;;5092337;28;20488;-74
2022/01/06 06:22:29;;;;;;;24.55;4.07;;;0.30;99.90;;;;;;5091569;28;20084;-75
2022/01/06 06:24:55;;;;;;;20.17;2.03;;;0.30;99.90;;;;;;5092202;28;20105;-75
2022/01/06 06:27:21;;;;;;;18.77;3.03;;;0.30;99.90;;;;;;5091924;28;20048;-75
2022/01/06 06:29:49;;;;;;;21.05;2.65;;;0.70;99.90;;;;;;5092713;28;20044;-75
2022/01/06 06:32:15;;;;;;;18.13;2.45;;;0.30;99.90;;;;;;5096275;28;20498;-76
2022/01/06 06:34:40;;;;;;;19.42;2.55;;;0.20;99.90;;;;;;5096461;28;20083;-75
2022/01/06 06:37:06;;;;;;;25.20;3.03;;;0.30;99.90;;;;;;5095824;28;20433;-75
2022/01/06 06:39:32;;;;;;;14.80;3.63;;;0.20;99.90;;;;;;5096133;28;20486;-74
2022/01/06 06:41:58;;;;;;;17.90;3.63;;;1.00;99.90;;;;;;5096512;28;20105;-74
2022/01/06 06:44:23;;;;;;;19.83;6.15;;;0.20;99.90;;;;;;5095212;28;20071;-73
2022/01/06 06:46:49;;;;;;;28.25;6.63;;;0.20;99.90;;;;;;5097552;28;20083;-73
2022/01/06 06:49:15;;;;;;;25.35;6.32;;;0.20;99.90;;;;;;5096411;28;20051;-74
2022/01/06 06:51:40;;;;;;;15.38;3.05;;;0.30;99.90;;;;;;5095095;28;20562;-74
2022/01/06 06:54:07;;;;;;;14.30;3.58;;;0.30;99.90;;;;;;5095831;28;20071;-74
2022/01/06 06:56:32;;;;;;;14.60;4.75;;;0.50;99.90;;;;;;5095798;28;20055;-74
2022/01/06 06:58:58;;;;;;;22.67;4.55;;;0.30;99.90;;;;;;5078090;28;20044;-73
2022/01/06 07:01:24;;;;;;;19.25;3.40;;;0.40;99.90;;;;;;5079196;28;20044;-74
2022/01/06 07:03:49;;;;;;;22.40;3.45;;;1.10;99.90;;;;;;5095219;28;20391;-74
2022/01/06 07:06:15;;;;;;;22.48;5.15;;;0.70;99.90;;;;;;5095879;28;20479;-74
2022/01/06 07:08:41;;;;;;;21.02;3.30;;;0.40;99.90;;;;;;5095961;28;20169;-74
2022/01/06 07:11:09;;;;;;;19.30;3.50;;;1.30;99.90;;;;;;5094563;28;20078;-74
2022/01/06 07:13:35;;;;;;;21.92;4.65;;;0.20;99.90;;;;;;5095818;28;20143;-74
2022/01/06 07:16:00;;;;;;;27.65;4.22;;;0.30;99.90;;;;;;5095689;28;20086;-74
2022/01/06 07:18:26;;;;;;;22.58;3.33;;;0.10;99.90;;;;;;5094752;28;20036;-74
2022/01/06 07:20:52;;;;;;;23.73;4.15;;;0.10;99.90;;;;;;5095244;28;20048;-74
2022/01/06 07:23:20;;;;;;;22.40;3.70;;;0.10;99.90;;;;;;5095571;28;20044;-74
2022/01/06 07:25:46;;;;;;;19.27;3.15;;;0.80;99.90;;;;;;5077190;28;20068;-74
2022/01/06 07:28:14;;;;;;;15.52;3.20;;;0.30;99.90;;;;;;5095491;28;20083;-74
2022/01/06 07:30:44;;;;;;;15.15;3.28;;;0.10;99.90;;;;;;5095432;28;20044;-74
2022/01/06 07:33:10;;;;;;;22.63;3.83;;;1.00;99.90;;;;;;5094651;28;20044;-74
2022/01/06 07:35:35;;;;;;;19.55;2.75;;;0.10;99.90;;;;;;5095120;28;20505;-74
2022/01/06 07:38:01;;;;;;;28.25;3.60;;;0.00;99.90;;;;;;5078381;28;20040;-74
2022/01/06 07:40:27;;;;;;;20.60;3.42;;;0.00;99.90;;;;;;5094035;28;20047;-74
2022/01/06 07:42:53;;;;;;;14.70;2.55;;;0.00;99.90;;;;;;5094839;28;20054;-74
2022/01/06 07:45:19;;;;;;;20.92;2.40;;;0.00;99.90;;;;;;5095173;28;20086;-75
2022/01/06 07:48:00;;;;;;;19.48;3.33;;;0.40;99.90;;;;;;5094478;28;20055;-74
2022/01/06 07:50:33;;;;;;;11.98;2.40;;;0.00;99.90;;;;;;5094893;28;20052;-74
2022/01/06 07:52:59;;;;;;;21.23;3.03;;;0.00;99.90;;;;;;5094230;28;20056;-74
2022/01/06 07:55:26;;;;;;;17.17;2.80;;;1.00;99.90;;;;;;5095796;28;20052;-74
2022/01/06 07:57:52;;;;;;;14.07;2.63;;;0.00;99.90;;;;;;5094726;28;20080;-74
2022/01/06 08:00:19;;;;;;;15.68;3.00;;;0.00;99.90;;;;;;5093934;28;20075;-74
2022/01/06 08:02:48;;;;;;;19.85;2.58;;;0.60;99.90;;;;;;5094971;28;20044;-73
2022/01/06 08:05:15;;;;;;;16.13;2.80;;;0.00;99.90;;;;;;5094314;28;20058;-74
2022/01/06 08:07:41;;;;;;;23.17;3.63;;;1.00;99.90;;;;;;5093874;28;20128;-74
2022/01/06 08:10:09;;;;;;;20.52;4.20;;;0.00;99.90;;;;;;5092595;28;20048;-74
2022/01/06 08:12:35;;;;;;;18.42;3.22;;;0.00;99.90;;;;;;5095408;28;20050;-74
2022/01/06 08:15:01;;;;;;;18.20;3.15;;;0.20;99.90;;;;;;5093599;28;20040;-74
2022/01/06 08:17:27;;;;;;;31.20;5.60;;;0.00;99.90;;;;;;5076583;28;20077;-74
2022/01/06 08:19:53;;;;;;;26.67;3.42;;;1.00;99.90;;;;;;5094439;28;20048;-75
2022/01/06 08:22:20;;;;;;;26.80;4.13;;;0.10;99.90;;;;;;5093334;28;20048;-74
2022/01/06 08:24:45;;;;;;;18.58;4.13;;;0.10;99.90;;;;;;5096484;28;20039;-74
2022/01/06 08:27:11;;;;;;;31.13;5.63;;;0.10;99.90;;;;;;5094182;28;20396;-74
2022/01/06 08:29:41;;;;;;;24.08;5.60;;;0.40;99.90;;;;;;5076650;28;20414;-74
2022/01/06 08:32:07;;;;;;;23.92;6.10;;;1.00;99.90;;;;;;5094182;28;20076;-73
2022/01/06 08:34:34;;;;;;;25.88;4.70;;;0.20;99.90;;;;;;5093608;28;20491;-74
2022/01/06 08:37:00;;;;;;;19.42;3.75;;;0.30;99.90;;;;;;5092175;28;20044;-74
2022/01/06 08:39:26;;;;;;;29.38;5.13;;;1.40;99.90;;;;;;5092997;28;20048;-73
2022/01/06 08:41:53;;;;;;;35.35;4.90;;;0.30;99.90;;;;;;5075814;28;20075;-74
2022/01/06 08:44:20;;;;;;;21.70;4.43;;;0.80;99.90;;;;;;5092110;28;20044;-74
2022/01/06 08:46:47;;;;;;;27.25;4.60;;;1.20;99.90;;;;;;5093943;28;20082;-74
2022/01/06 08:49:15;;;;;;;23.73;4.88;;;0.30;99.90;;;;;;5092854;28;20044;-74
2022/01/06 08:51:41;;;;;;;27.42;4.85;;;0.70;99.90;;;;;;5076095;28;20445;-74
2022/01/06 08:54:07;;;;;;;17.63;3.50;;;0.40;99.90;;;;;;5093174;28;20040;-74
2022/01/06 08:56:34;;;;;;;27.52;3.55;;;0.50;99.90;;;;;;5092841;28;20534;-73
2022/01/06 08:59:04;;;;;;;28.23;5.10;;;0.50;99.90;;;;;;5110567;28;20048;-74
2022/01/06 09:01:30;;;;;;;32.58;3.92;;;0.60;99.90;;;;;;5094561;28;20055;-74
2022/01/06 09:03:56;;;;;;;31.20;4.38;;;0.60;99.90;;;;;;5088152;28;20414;-74
2022/01/06 09:06:25;;;;;;;28.30;4.10;;;0.70;99.90;;;;;;5075529;28;20067;-74
2022/01/06 09:08:50;;;;;;;31.17;5.22;;;0.70;99.90;;;;;;5076634;28;20110;-74
2022/01/06 09:11:16;;;;;;;19.42;5.43;;;0.90;99.90;;;;;;5093289;28;20060;-74
2022/01/06 09:13:42;;;;;;;26.85;7.68;;;0.90;99.90;;;;;;5093351;28;20043;-74
2022/01/06 09:16:09;;;;;;;30.20;7.28;;;1.10;99.90;;;;;;5093122;28;20403;-74
2022/01/06 09:18:38;;;;;;;21.17;5.82;;;1.10;99.90;;;;;;5092267;28;20495;-74
2022/01/06 09:21:08;;;;;;;26.67;4.50;;;1.50;99.90;;;;;;5092705;28;20062;-74
2022/01/06 09:23:36;;;;;;;19.17;4.90;;;1.20;99.90;;;;;;5093090;28;20052;-74
2022/01/06 09:26:02;;;;;;;26.60;4.45;;;1.30;99.90;;;;;;5092017;28;20048;-74
2022/01/06 09:28:27;;;;;;;21.08;4.63;;;1.30;99.90;;;;;;5092883;28;20055;-74
2022/01/06 09:30:55;;;;;;;21.38;5.05;;;1.40;99.90;;;;;;5094188;28;20059;-74
2022/01/06 09:33:22;;;;;;;28.73;7.75;;;1.40;99.90;;;;;;5091963;28;20054;-74
2022/01/06 09:35:49;;;;;;;28.02;7.00;;;1.50;99.90;;;;;;5092806;28;20044;-74
2022/01/06 09:38:16;;;;;;;32.15;7.68;;;1.50;99.90;;;;;;5092666;28;20040;-74
2022/01/06 09:40:43;;;;;;;25.70;6.03;;;1.60;99.90;;;;;;5092093;28;20380;-74
2022/01/06 09:43:13;;;;;;;35.45;5.35;;;1.70;99.90;;;;;;5092664;28;20044;-74
2022/01/06 09:45:41;;;;;;;40.00;6.85;;;1.80;99.90;;;;;;5092148;28;20055;-74
2022/01/06 09:48:08;;;;;;;30.65;6.03;;;1.90;99.90;;;;;;5109653;28;20079;-74
2022/01/06 09:50:36;;;;;;;33.63;5.05;;;2.30;99.90;;;;;;5092487;28;20056;-74
2022/01/06 09:53:02;;;;;;;43.45;7.75;;;2.00;99.90;;;;;;5091908;28;20121;-74
2022/01/06 09:55:28;;;;;;;26.48;5.40;;;2.20;99.90;;;;;;5092385;28;20048;-74
2022/01/06 09:57:57;;;;;;;27.17;6.78;;;2.10;99.90;;;;;;5092553;28;20062;-74
2022/01/06 10:00:24;;;;;;;26.58;5.97;;;2.10;99.90;;;;;;5091830;28;20155;-74
2022/01/06 10:02:55;;;;;;;27.20;6.32;;;3.00;99.90;;;;;;5092316;28;20494;-74
2022/01/06 10:05:22;;;;;;;22.85;4.65;;;2.20;99.90;;;;;;5091622;28;20051;-74
2022/01/06 10:07:47;;;;;;;31.63;4.72;;;2.30;99.90;;;;;;5091879;28;20063;-74
2022/01/06 10:10:14;;;;;;;22.40;4.22;;;3.10;99.90;;;;;;5092381;28;20487;-74
2022/01/06 10:12:41;;;;;;;30.45;5.82;;;2.60;99.90;;;;;;5093425;28;20039;-74
2022/01/06 10:15:22;;;;;;;30.10;6.43;;;2.40;99.90;;;;;;5091684;28;20087;-74
2022/01/06 10:17:48;;;;;;;37.00;5.63;;;2.50;99.90;;;;;;5092166;28;20497;-74
2022/01/06 10:20:20;;;;;;;31.60;6.70;;;2.70;99.90;;;;;;5092103;28;20475;-74
2022/01/06 10:22:52;;;;;;;24.75;5.70;;;2.60;99.90;;;;;;5091489;28;20059;-74
2022/01/06 10:25:20;;;;;;;31.35;6.35;;;2.60;99.90;;;;;;5093262;28;20044;-74
2022/01/06 10:27:46;;;;;;;28.98;4.97;;;3.10;99.90;;;;;;5092597;28;20052;-74
2022/01/06 10:30:13;;;;;;;38.50;5.50;;;2.70;99.90;;;;;;5092257;28;20117;-74
2022/01/06 10:32:40;;;;;;;30.35;6.57;;;2.80;99.90;;;;;;5092018;28;20127;-74
2022/01/06 10:35:08;;;;;;;23.42;4.38;;;2.80;99.90;;;;;;5091199;28;20048;-74
2022/01/06 10:37:42;;;;;;;26.48;4.80;;;2.90;99.90;;;;;;5093192;28;20043;-74
2022/01/06 10:40:11;;;;;;;25.70;4.93;;;2.90;99.90;;;;;;5091843;28;20072;-74
2022/01/06 10:42:42;;;;;;;26.33;4.50;;;3.00;99.90;;;;;;5091198;28;20123;-74
2022/01/06 10:45:15;;;;;;;26.50;4.18;;;3.10;99.90;;;;;;5092292;28;20052;-74
2022/01/06 10:47:46;;;;;;;26.42;4.68;;;3.20;99.90;;;;;;5093408;28;20056;-74
2022/01/06 10:50:19;;;;;;;30.35;5.13;;;3.30;99.90;;;;;;5090875;28;20044;-75
2022/01/06 10:52:49;;;;;;;27.15;4.28;;;3.30;99.90;;;;;;5092414;28;20055;-74
2022/01/06 10:55:20;;;;;;;27.52;4.72;;;3.40;99.90;;;;;;5093391;28;20071;-74
2022/01/06 10:57:55;;;;;;;27.42;5.20;;;3.50;99.90;;;;;;5092003;28;20037;-74
2022/01/06 11:00:22;;;;;;;22.30;4.28;;;3.60;99.90;;;;;;5092807;28;20040;-74
2022/01/06 11:02:48;;;;;;;25.90;4.85;;;3.70;99.90;;;;;;5091098;28;20047;-75
2022/01/06 11:05:14;;;;;;;28.17;7.10;;;3.70;99.90;;;;;;5091680;28;20048;-74
2022/01/06 11:07:40;;;;;;;17.38;4.00;;;3.80;99.90;;;;;;5091721;28;20170;-74
2022/01/06 11:10:14;;;;;;;24.33;4.05;;;3.90;99.90;;;;;;5091127;28;20123;-74
2022/01/06 11:12:40;;;;;;;24.58;3.95;;;4.00;99.90;;;;;;5091959;28;20044;-75
2022/01/06 11:15:07;;;;;;;20.83;3.83;;;4.60;99.90;;;;;;5092093;28;20040;-74
2022/01/06 11:17:33;;;;;;;21.77;5.97;;;4.10;99.90;;;;;;5094940;28;20109;-74
2022/01/06 11:19:59;;;;;;;22.90;3.72;;;4.20;99.90;;;;;;5095860;28;20442;-74
2022/01/06 11:22:27;;;;;;;32.90;6.07;;;4.30;99.90;;;;;;5097044;28;20047;-74
2022/01/06 11:24:54;;;;;;;21.83;5.70;;;4.40;99.90;;;;;;5094680;28;20056;-74
2022/01/06 11:27:33;;;;;;;17.73;3.33;;;4.50;99.90;;;;;;5096516;28;20097;-74
2022/01/06 11:30:14;;;;;;;22.40;4.20;;;4.50;99.90;;;;;;5095541;28;20036;-74
2022/01/06 11:32:42;;;;;;;23.05;4.57;;;4.60;99.90;;;;;;5094606;28;20044;-74
2022/01/06 11:35:11;;;;;;;22.08;4.25;;;4.60;99.90;;;;;;5094766;28;20564;-74
2022/01/06 11:37:47;;;;;;;18.80;3.42;;;4.70;99.90;;;;;;5095356;28;20527;-74
2022/01/06 11:40:15;;;;;;;28.35;6.45;;;4.70;99.90;;;;;;5094756;28;20048;-75
2022/01/06 11:42:51;;;;;;;15.98;3.58;;;4.80;99.90;;;;;;5095319;28;20048;-75
2022/01/06 11:45:20;;;;;;;18.90;3.33;;;4.90;99.90;;;;;;5094366;28;20083;-75
2022/01/06 11:47:46;;;;;;;13.13;2.92;;;5.00;99.90;;;;;;5093921;28;20115;-75
2022/01/06 11:50:24;;;;;;;24.48;3.15;;;5.10;99.90;;;;;;5094414;28;20054;-75
2022/01/06 11:52:55;;;;;;;13.82;3.13;;;5.20;99.90;;;;;;5095078;28;20410;-74
2022/01/06 11:55:33;;;;;;;18.55;3.78;;;5.30;99.90;;;;;;5094806;28;20048;-75
2022/01/06 11:58:16;;;;;;;19.25;3.92;;;5.30;99.90;;;;;;5075856;28;20047;-75
2022/01/06 12:00:53;;;;;;;24.52;2.95;;;5.40;99.90;;;;;;5065146;28;20131;-75
2022/01/06 12:03:19;;;;;;;17.45;2.35;;;5.40;99.90;;;;;;5095959;28;20040;-75
2022/01/06 12:05:49;;;;;;;16.92;2.83;;;5.50;99.90;;;;;;5094644;28;20059;-75
2022/01/06 12:08:34;;;;;;;20.98;3.35;;;5.60;99.90;;;;;;5093893;28;20494;-75
2022/01/06 12:11:00;;;;;;;15.68;2.70;;;5.60;99.90;;;;;;5095558;28;20535;-75
2022/01/06 12:13:26;;;;;;;19.02;2.60;;;5.60;99.90;;;;;;5093917;28;20047;-75
2022/01/06 12:15:56;;;;;;;22.42;2.65;;;5.70;99.90;;;;;;5094867;28;20043;-75
2022/01/06 12:18:26;;;;;;;9.57;2.38;;;5.90;99.90;;;;;;5095758;28;20518;-75
2022/01/06 12:20:53;;;;;;;13.15;2.80;;;6.00;99.90;;;;;;5094819;28;20513;-75
2022/01/06 12:23:20;;;;;;;15.40;2.63;;;6.00;99.90;;;;;;5094251;28;20619;-75
2022/01/06 12:25:55;;;;;;;25.58;3.10;;;6.00;99.90;;;;;;5094210;28;20093;-75
2022/01/06 12:28:21;;;;;;;20.73;3.08;;;5.90;99.90;;;;;;5092561;28;20052;-75
2022/01/06 12:30:47;;;;;;;19.75;3.60;;;5.90;99.90;;;;;;5095189;28;20040;-75
2022/01/06 12:33:14;;;;;;;23.17;3.58;;;5.90;99.90;;;;;;5093953;28;20503;-75
2022/01/06 12:35:48;;;;;;;20.17;3.40;;;6.00;99.90;;;;;;5093179;28;20491;-75
2022/01/06 12:38:15;;;;;;;20.75;3.65;;;6.00;99.90;;;;;;5095478;28;20048;-75
2022/01/06 12:40:46;;;;;;;19.23;3.25;;;6.00;99.90;;;;;;5093700;28;20487;-75
2022/01/06 12:43:19;;;;;;;24.88;3.88;;;6.00;99.90;;;;;;5093119;28;20476;-75
2022/01/06 12:45:46;;;;;;;16.95;3.90;;;6.00;99.90;;;;;;5095471;28;20452;-75
2022/01/06 12:48:13;;;;;;;21.77;3.28;;;6.00;99.90;;;;;;5093795;28;20387;-75
2022/01/06 12:50:47;;;;;;;18.67;3.17;;;6.00;99.90;;;;;;5093856;28;20056;-75
2022/01/06 12:53:34;;;;;;;15.00;2.80;;;5.90;99.90;;;;;;5093721;28;20056;-75
2022/01/06 12:56:00;;;;;;;19.23;2.67;;;5.90;99.90;;;;;;5092839;28;20372;-75
2022/01/06 12:58:35;;;;;;;12.65;2.70;;;6.00;99.90;;;;;;5093724;28;20135;-75
2022/01/06 13:01:07;;;;;;;15.65;2.40;;;6.00;99.90;;;;;;5095065;28;20181;-75